createdAt,value
2022-08-14T00:02:01.570Z,69.72
2022-08-14T00:05:10.891Z,71.11
2022-08-14T00:08:14.511Z,69.82
2022-08-14T00:11:17.219Z,70.45
2022-08-14T00:14:19.969Z,70.39
2022-08-14T00:17:22.544Z,70.80
2022-08-14T00:20:30.938Z,70.52
2022-08-14T00:23:40.134Z,71.42
2022-08-14T00:26:42.795Z,71.59
2022-08-14T00:29:46.079Z,71.44
2022-08-14T00:32:56.656Z,72.01
2022-08-14T00:36:39.280Z,71.99
2022-08-14T00:39:29.000Z,73.01
2022-08-14T00:42:55.463Z,73.25
2022-08-14T00:45:55.483Z,73.13
2022-08-14T00:48:58.723Z,73.82
2022-08-14T00:52:02.926Z,73.16
2022-08-14T00:55:07.616Z,74.55
2022-08-14T00:58:32.948Z,74.35
2022-08-14T01:01:36.990Z,74.15
2022-08-14T01:04:53.569Z,73.92
2022-08-14T01:07:59.377Z,74.71
2022-08-14T01:11:02.008Z,74.45
2022-08-14T01:14:25.950Z,73.14
2022-08-14T01:17:51.902Z,73.20
2022-08-14T01:21:04.277Z,73.48
2022-08-14T01:24:11.005Z,73.33
2022-08-14T01:27:17.468Z,73.47
2022-08-14T01:30:26.364Z,73.73
2022-08-14T01:33:30.450Z,73.95
2022-08-14T01:36:42.259Z,73.55
2022-08-14T01:39:47.008Z,74.01
2022-08-14T01:42:50.729Z,73.47
2022-08-14T01:46:06.514Z,73.61
2022-08-14T01:49:11.617Z,73.45
2022-08-14T01:52:33.999Z,73.15
2022-08-14T01:55:40.723Z,73.11
2022-08-14T01:58:57.402Z,73.52
2022-08-14T02:02:03.989Z,75.18
2022-08-14T02:05:08.295Z,74.40
2022-08-14T02:08:11.078Z,74.32
2022-08-14T02:11:18.834Z,74.68
2022-08-14T02:14:31.403Z,76.29
2022-08-14T02:17:35.814Z,75.99
2022-08-14T02:20:38.589Z,75.24
2022-08-14T02:23:42.939Z,75.28
2022-08-14T02:28:20.207Z,76.22
2022-08-14T02:30:11.519Z,75.46
2022-08-14T02:33:16.459Z,76.81
2022-08-14T02:37:04.886Z,77.72
2022-08-14T02:39:45.730Z,77.54
2022-08-14T02:42:54.950Z,77.89
2022-08-14T02:46:00.343Z,77.29
2022-08-14T02:49:06.634Z,76.55
2022-08-14T02:52:27.000Z,77.49
2022-08-14T02:55:33.230Z,77.93
2022-08-14T02:58:41.781Z,78.37
2022-08-14T03:01:51.061Z,79.01
2022-08-14T03:04:57.526Z,78.27
2022-08-14T03:08:09.668Z,79.05
2022-08-14T03:11:14.916Z,78.61
2022-08-14T03:14:21.454Z,78.04
2022-08-14T03:17:24.082Z,78.41
2022-08-14T03:20:28.991Z,79.19
2022-08-14T03:23:37.905Z,78.90
2022-08-14T03:26:44.005Z,79.19
2022-08-14T03:29:48.578Z,78.98
2022-08-14T03:32:51.398Z,79.01
2022-08-14T03:36:00.028Z,79.18
2022-08-14T03:39:15.590Z,79.40
2022-08-14T03:42:25.220Z,80.19
2022-08-14T03:45:48.541Z,80.33
2022-08-14T03:48:54.218Z,80.41
2022-08-14T03:51:57.459Z,81.51
2022-08-14T03:55:00.845Z,82.11
2022-08-14T03:58:03.490Z,82.05
2022-08-14T04:01:09.164Z,82.72
2022-08-14T04:04:13.338Z,83.62
2022-08-14T04:07:17.234Z,83.59
2022-08-14T04:10:31.584Z,82.73
2022-08-14T04:13:37.740Z,83.07
2022-08-14T04:16:48.064Z,83.33
2022-08-14T04:19:51.018Z,82.85
2022-08-14T04:22:55.673Z,84.24
2022-08-14T04:25:58.833Z,84.21
2022-08-14T04:29:14.853Z,85.21
2022-08-14T04:32:58.294Z,84.73
2022-08-14T04:35:42.730Z,85.44
2022-08-14T04:39:16.518Z,85.55
2022-08-14T04:42:36.747Z,85.40
2022-08-14T04:45:41.540Z,85.26
2022-08-14T04:48:51.385Z,85.33
2022-08-14T04:52:04.081Z,85.79
2022-08-14T04:55:18.400Z,85.45
2022-08-14T04:58:32.929Z,85.75
2022-08-14T05:01:39.862Z,85.74
2022-08-14T05:04:45.533Z,86.19
2022-08-14T05:08:09.695Z,86.51
2022-08-14T05:11:13.424Z,86.73
2022-08-14T05:14:46.641Z,87.24
2022-08-14T05:17:43.985Z,87.90
2022-08-14T05:21:55.615Z,87.42
2022-08-14T05:24:17.790Z,86.72
2022-08-14T05:27:23.519Z,87.00
2022-08-14T05:30:26.759Z,86.84
2022-08-14T05:33:33.040Z,87.21
2022-08-14T05:36:37.052Z,87.37
2022-08-14T05:39:42.230Z,87.44
2022-08-14T05:42:46.438Z,87.45
2022-08-14T05:45:49.860Z,88.67
2022-08-14T05:48:54.847Z,87.12
2022-08-14T05:52:01.958Z,87.53
2022-08-14T05:55:06.022Z,87.45
2022-08-14T05:58:10.033Z,85.92
2022-08-14T06:01:12.712Z,85.91
2022-08-14T06:04:17.468Z,86.65
2022-08-14T06:07:21.391Z,87.49
2022-08-14T06:10:24.091Z,85.00
2022-08-14T06:13:31.560Z,83.50
2022-08-14T06:16:45.174Z,84.73
2022-08-14T06:19:47.902Z,83.49
2022-08-14T06:22:53.190Z,84.05
2022-08-14T06:25:55.852Z,81.96
2022-08-14T06:29:00.489Z,83.00
2022-08-14T06:32:38.087Z,81.47
2022-08-14T06:35:27.830Z,81.46
2022-08-14T06:38:32.777Z,81.61
2022-08-14T06:41:58.771Z,80.78
2022-08-14T06:44:58.430Z,81.67
2022-08-14T06:48:01.594Z,79.09
2022-08-14T06:51:04.268Z,79.16
2022-08-14T06:54:09.479Z,80.51
2022-08-14T06:57:12.652Z,77.75
2022-08-14T07:00:22.554Z,76.37
2022-08-14T07:03:47.310Z,77.38
2022-08-14T07:06:51.028Z,76.13
2022-08-14T07:09:55.409Z,75.83
2022-08-14T07:13:03.660Z,75.43
2022-08-14T07:16:07.621Z,74.26
2022-08-14T07:19:10.433Z,74.69
2022-08-14T07:22:17.578Z,75.15
2022-08-14T07:25:32.514Z,73.78
2022-08-14T07:28:43.217Z,73.13
2022-08-14T07:31:46.470Z,71.20
2022-08-14T07:34:49.823Z,69.47
2022-08-14T07:37:52.705Z,68.42
2022-08-14T07:40:57.680Z,67.70
2022-08-14T07:44:22.454Z,70.73
2022-08-14T07:47:23.244Z,66.96
2022-08-14T07:50:26.158Z,67.35
2022-08-14T07:53:39.364Z,67.34
2022-08-14T07:56:47.968Z,67.27
2022-08-14T07:59:53.381Z,65.72
2022-08-14T08:02:57.070Z,64.00
2022-08-14T08:06:03.647Z,63.87
2022-08-14T08:09:13.507Z,62.45
2022-08-14T08:12:26.204Z,61.92
2022-08-14T08:15:36.261Z,61.50
2022-08-14T08:18:39.250Z,61.32
2022-08-14T08:21:43.724Z,62.09
2022-08-14T08:24:46.548Z,61.98
2022-08-14T08:27:59.504Z,63.44
2022-08-14T08:31:06.714Z,63.14
2022-08-14T08:34:14.135Z,64.02
2022-08-14T08:37:21.755Z,60.93
2022-08-14T08:40:31.262Z,58.97
2022-08-14T08:43:36.932Z,60.38
2022-08-14T08:46:42.695Z,60.03
2022-08-14T08:49:53.055Z,58.06
2022-08-14T08:53:04.748Z,57.30
2022-08-14T08:56:08.101Z,57.49
2022-08-14T08:59:27.138Z,57.50
2022-08-14T09:02:33.653Z,54.88
2022-08-14T09:05:38.721Z,51.38
2022-08-14T09:08:47.080Z,54.47
2022-08-14T09:11:49.981Z,55.15
2022-08-14T09:14:54.602Z,54.69
2022-08-14T09:17:58.277Z,53.94
2022-08-14T09:21:00.885Z,52.72
2022-08-14T09:24:29.069Z,54.17
2022-08-14T09:27:26.208Z,49.87
2022-08-14T09:30:33.600Z,51.69
2022-08-14T09:33:56.292Z,49.53
2022-08-14T09:37:18.490Z,50.24
2022-08-14T09:40:37.211Z,49.29
2022-08-14T09:43:50.765Z,47.89
2022-08-14T09:46:56.330Z,46.10
2022-08-14T09:50:00.590Z,48.83
2022-08-14T09:53:17.965Z,47.55
2022-08-14T09:56:30.707Z,49.64
2022-08-14T09:59:44.790Z,49.88
2022-08-14T10:02:57.786Z,50.25
2022-08-14T10:06:09.865Z,51.88
2022-08-14T10:09:16.888Z,49.61
2022-08-14T10:12:28.789Z,51.53
2022-08-14T10:15:33.610Z,51.59
2022-08-14T10:18:37.620Z,51.83
2022-08-14T10:21:58.425Z,51.16
2022-08-14T10:25:14.107Z,53.34
2022-08-14T10:28:39.094Z,51.45
2022-08-14T10:31:44.509Z,50.50
2022-08-14T10:34:52.472Z,54.15
2022-08-14T10:37:55.666Z,54.31
2022-08-14T10:41:13.310Z,54.61
2022-08-14T10:44:21.358Z,57.06
2022-08-14T10:47:41.385Z,56.77
2022-08-14T10:51:00.231Z,58.14
2022-08-14T10:54:34.946Z,58.52
2022-08-14T10:57:35.491Z,58.28
2022-08-14T11:00:46.907Z,57.24
2022-08-14T11:03:55.712Z,56.92
2022-08-14T11:07:01.375Z,58.39
2022-08-14T11:10:06.980Z,58.58
2022-08-14T11:13:09.838Z,59.76
2022-08-14T11:16:13.160Z,59.11
2022-08-14T11:19:16.518Z,59.10
2022-08-14T11:22:56.299Z,59.36
2022-08-14T11:25:52.973Z,60.34
2022-08-14T11:28:59.915Z,58.88
2022-08-14T11:32:03.273Z,59.61
2022-08-14T11:35:06.884Z,59.28
2022-08-14T11:38:12.534Z,58.85
2022-08-14T11:41:17.565Z,55.87
2022-08-14T11:44:46.221Z,53.28
2022-08-14T11:48:01.225Z,52.51
2022-08-14T11:51:13.961Z,50.65
2022-08-14T11:54:19.514Z,51.37
2022-08-14T11:57:23.007Z,49.42
2022-08-14T12:00:31.827Z,46.64
2022-08-14T12:03:51.508Z,45.84
2022-08-14T12:06:56.698Z,47.34
2022-08-14T12:10:00.716Z,45.21
2022-08-14T12:13:23.311Z,45.94
2022-08-14T12:16:31.317Z,43.40
2022-08-14T12:19:50.917Z,42.16
2022-08-14T12:22:55.022Z,41.76
2022-08-14T12:26:39.455Z,40.75
2022-08-14T12:29:28.615Z,41.14
2022-08-14T12:32:41.970Z,41.33
2022-08-14T12:35:45.660Z,40.22
2022-08-14T12:38:50.797Z,39.66
2022-08-14T12:42:06.550Z,37.58
2022-08-14T12:45:12.988Z,39.12
2022-08-14T12:48:21.690Z,36.64
2022-08-14T12:51:34.330Z,36.50
2022-08-14T12:54:50.535Z,36.34
2022-08-14T12:58:34.999Z,37.42
2022-08-14T13:01:31.114Z,37.98
2022-08-14T13:04:35.432Z,37.32
2022-08-14T13:07:40.185Z,37.79
2022-08-14T13:10:52.368Z,36.77
2022-08-14T13:14:00.547Z,35.45
2022-08-14T13:17:05.473Z,36.93
2022-08-14T13:20:24.405Z,39.67
2022-08-14T13:23:32.983Z,39.66
2022-08-14T13:26:40.033Z,38.79
2022-08-14T13:29:53.350Z,38.50
2022-08-14T13:32:58.388Z,38.07
2022-08-14T13:36:02.368Z,37.50
2022-08-14T13:39:05.015Z,38.29
2022-08-14T13:42:13.365Z,35.59
2022-08-14T13:45:18.291Z,35.63
2022-08-14T13:48:32.332Z,34.61
2022-08-14T13:51:41.314Z,35.90
2022-08-14T13:54:46.270Z,35.75
2022-08-14T13:58:04.438Z,34.56
2022-08-14T14:01:09.403Z,34.23
2022-08-14T14:04:19.047Z,34.19
2022-08-14T14:07:23.882Z,34.86
2022-08-14T14:10:28.159Z,35.38
2022-08-14T14:13:32.490Z,36.42
2022-08-14T14:16:38.345Z,37.20
2022-08-14T14:19:46.286Z,36.86
2022-08-14T14:23:02.514Z,36.74
2022-08-14T14:26:06.389Z,37.63
2022-08-14T14:29:25.943Z,35.92
2022-08-14T14:32:32.377Z,37.25
2022-08-14T14:35:38.621Z,35.87
2022-08-14T14:38:45.027Z,35.04
2022-08-14T14:41:56.214Z,36.06
2022-08-14T14:45:05.595Z,35.19
2022-08-14T14:48:10.012Z,34.93
2022-08-14T14:51:14.482Z,34.93
2022-08-14T14:54:30.042Z,35.68
2022-08-14T14:57:36.361Z,34.90
2022-08-14T15:00:40.071Z,34.48
2022-08-14T15:03:46.088Z,36.85
2022-08-14T15:06:49.073Z,37.22
2022-08-14T15:09:51.684Z,38.97
2022-08-14T15:12:57.497Z,43.40
2022-08-14T15:16:00.731Z,42.24
2022-08-14T15:19:05.621Z,41.37
2022-08-14T15:22:10.622Z,42.44
2022-08-14T15:25:14.689Z,43.40
2022-08-14T15:28:21.668Z,45.11
2022-08-14T15:31:24.422Z,46.33
2022-08-14T15:34:45.885Z,46.54
2022-08-14T15:37:55.919Z,47.82
2022-08-14T15:41:04.514Z,49.18
2022-08-14T15:44:24.659Z,49.98
2022-08-14T15:47:30.824Z,50.97
2022-08-14T15:50:35.405Z,51.25
2022-08-14T15:53:38.038Z,51.03
2022-08-14T15:56:43.551Z,51.38
2022-08-14T16:00:04.134Z,52.59
2022-08-14T16:03:15.543Z,50.92
2022-08-14T16:06:22.132Z,51.55
2022-08-14T16:09:25.544Z,52.63
2022-08-14T16:12:41.333Z,51.56
2022-08-14T16:15:53.111Z,51.93
2022-08-14T16:18:58.303Z,52.02
2022-08-14T16:22:57.160Z,53.29
2022-08-14T16:25:34.658Z,52.70
2022-08-14T16:28:38.286Z,54.96
2022-08-14T16:31:43.529Z,55.86
2022-08-14T16:34:49.225Z,56.67
2022-08-14T16:37:59.870Z,57.98
2022-08-14T16:41:27.178Z,58.64
2022-08-14T16:44:36.377Z,60.11
2022-08-14T16:47:39.644Z,61.47
2022-08-14T16:50:44.527Z,61.25
2022-08-14T16:53:49.674Z,60.83
2022-08-14T16:56:53.035Z,60.95
2022-08-14T16:59:59.205Z,61.69
2022-08-14T17:03:11.465Z,61.59
2022-08-14T17:06:30.588Z,61.81
2022-08-14T17:09:43.569Z,62.21
2022-08-14T17:12:46.498Z,61.89
2022-08-14T17:16:05.354Z,61.84
2022-08-14T17:19:17.591Z,62.84
2022-08-14T17:22:22.267Z,63.51
2022-08-14T17:25:36.989Z,62.63
2022-08-14T17:28:51.802Z,63.90
2022-08-14T17:32:02.128Z,63.92
2022-08-14T17:35:10.118Z,64.00
2022-08-14T17:38:38.643Z,65.07
2022-08-14T17:41:43.796Z,64.26
2022-08-14T17:44:48.117Z,64.72
2022-08-14T17:47:51.426Z,64.90
2022-08-14T17:50:59.755Z,66.60
2022-08-14T17:54:04.617Z,65.47
2022-08-14T17:57:14.868Z,67.07
2022-08-14T18:00:17.742Z,66.31
2022-08-14T18:03:50.632Z,66.05
2022-08-14T18:06:57.815Z,67.63
2022-08-14T18:10:53.206Z,67.10
2022-08-14T18:13:50.832Z,66.48
2022-08-14T18:16:57.140Z,66.41
2022-08-14T18:19:59.862Z,66.33
2022-08-14T18:23:06.032Z,66.71
2022-08-14T18:26:09.598Z,68.00
2022-08-14T18:29:35.755Z,67.39
2022-08-14T18:32:55.002Z,67.74
2022-08-14T18:36:46.670Z,68.42
2022-08-14T18:39:32.834Z,69.73
2022-08-14T18:42:45.634Z,69.36
2022-08-14T18:46:01.818Z,68.85
2022-08-14T18:49:17.077Z,68.92
2022-08-14T18:52:20.326Z,69.40
2022-08-14T18:55:53.124Z,70.51
2022-08-14T18:58:58.791Z,70.98
2022-08-14T19:02:42.391Z,70.97
2022-08-14T19:05:59.601Z,70.43
2022-08-14T19:09:03.803Z,70.61
2022-08-14T19:12:06.898Z,71.80
2022-08-14T19:15:20.702Z,71.92
2022-08-14T19:18:30.368Z,71.89
2022-08-14T19:21:44.504Z,71.27
2022-08-14T19:24:50.414Z,72.26
2022-08-14T19:28:31.560Z,72.37
2022-08-14T19:31:42.172Z,72.41
2022-08-14T19:34:48.114Z,72.62
2022-08-14T19:37:57.976Z,73.38
2022-08-14T19:41:02.242Z,73.88
2022-08-14T19:44:13.312Z,73.80
2022-08-14T19:47:16.083Z,73.93
2022-08-14T19:50:30.626Z,72.57
2022-08-14T19:53:52.829Z,71.66
2022-08-14T19:56:59.167Z,69.83
2022-08-14T20:00:07.848Z,67.92
2022-08-14T20:04:00.628Z,66.17
2022-08-14T20:07:04.393Z,66.33
2022-08-14T20:11:09.173Z,66.50
2022-08-14T20:13:49.446Z,64.72
2022-08-14T20:16:54.591Z,65.16
2022-08-14T20:19:59.029Z,65.88
2022-08-14T20:23:11.207Z,66.22
2022-08-14T20:26:31.595Z,66.59
2022-08-14T20:29:38.118Z,66.54
2022-08-14T20:32:48.130Z,67.80
2022-08-14T20:35:51.449Z,67.00
2022-08-14T20:38:57.078Z,68.10
2022-08-14T20:42:24.287Z,68.12
2022-08-14T20:45:28.915Z,67.97
2022-08-14T20:48:52.788Z,68.08
2022-08-14T20:52:00.249Z,67.93
2022-08-14T20:55:22.342Z,67.31
2022-08-14T20:58:44.115Z,66.97
2022-08-14T21:01:52.052Z,67.85
2022-08-14T21:05:00.537Z,67.68
2022-08-14T21:08:09.720Z,67.59
2022-08-14T21:11:27.968Z,67.29
2022-08-14T21:14:30.604Z,67.38
2022-08-14T21:17:38.152Z,67.41
2022-08-14T21:20:45.441Z,66.60
2022-08-14T21:23:54.362Z,66.38
2022-08-14T21:27:02.068Z,66.58
2022-08-14T21:30:13.993Z,67.19
2022-08-14T21:33:24.734Z,66.99
2022-08-14T21:36:31.059Z,67.17
2022-08-14T21:39:34.236Z,67.46
2022-08-14T21:42:37.716Z,67.97
2022-08-14T21:45:40.268Z,67.41
2022-08-14T21:48:44.614Z,67.64
2022-08-14T21:51:57.118Z,67.36
2022-08-14T21:55:09.302Z,67.51
2022-08-14T21:58:52.085Z,66.39
2022-08-14T22:02:00.928Z,66.65
2022-08-14T22:04:59.538Z,67.04
2022-08-14T22:08:07.298Z,67.14
2022-08-14T22:11:09.951Z,67.28
2022-08-14T22:14:25.126Z,67.20
2022-08-14T22:17:32.416Z,67.64
2022-08-14T22:20:38.514Z,68.79
2022-08-14T22:23:41.127Z,68.89
2022-08-14T22:26:45.076Z,68.80
2022-08-14T22:29:47.739Z,69.13
2022-08-14T22:32:59.925Z,69.25
2022-08-14T22:36:26.214Z,69.74
2022-08-14T22:40:16.702Z,70.21
2022-08-14T22:43:00.201Z,70.43
2022-08-14T22:46:06.083Z,70.52
2022-08-14T22:50:29.190Z,70.94
2022-08-14T22:52:49.603Z,70.77
2022-08-14T22:55:52.924Z,71.42
2022-08-14T22:58:57.747Z,71.69
2022-08-14T23:02:03.774Z,72.12
2022-08-14T23:05:08.107Z,71.76
2022-08-14T23:08:58.132Z,72.74
2022-08-14T23:11:37.719Z,72.30
2022-08-14T23:14:41.738Z,72.54
2022-08-14T23:17:44.535Z,72.41
2022-08-14T23:20:49.171Z,72.55
2022-08-14T23:23:55.033Z,73.19
2022-08-14T23:26:58.275Z,72.78
2022-08-14T23:30:00.875Z,73.04
2022-08-14T23:33:04.225Z,73.76
2022-08-14T23:36:32.082Z,73.98
2022-08-14T23:39:33.071Z,73.76
2022-08-14T23:42:50.395Z,74.90
2022-08-14T23:45:57.332Z,75.45
2022-08-14T23:49:00.434Z,75.96
2022-08-14T23:52:50.868Z,75.87
2022-08-14T23:55:33.005Z,76.37
2022-08-14T23:58:37.007Z,77.18
